sensor_id;sensor_type;location;lat;lon;timestamp;temperature;humidity
19868;DHT22;10096;51.112;6.776;2022-09-30T00:00:58;7.60;99.90
19868;DHT22;10096;51.112;6.776;2022-09-30T00:03:25;7.60;99.90
19868;DHT22;10096;51.112;6.776;2022-09-30T00:05:57;7.60;99.90
19868;DHT22;10096;51.112;6.776;2022-09-30T00:08:24;7.60;99.90
19868;DHT22;10096;51.112;6.776;2022-09-30T00:11:00;7.50;99.90
19868;DHT22;10096;51.112;6.776;2022-09-30T00:13:28;7.50;1.00
19868;DHT22;10096;51.112;6.776;2022-09-30T00:15:57;7.50;1.00
19868;DHT22;10096;51.112;6.776;2022-09-30T00:18:25;7.50;1.00
19868;DHT22;10096;51.112;6.776;2022-09-30T00:20:52;7.50;1.00
19868;DHT22;10096;51.112;6.776;2022-09-30T00:23:19;7.70;1.00
19868;DHT22;10096;51.112;6.776;2022-09-30T00:25:46;7.50;1.00
19868;DHT22;10096;51.112;6.776;2022-09-30T00:28:14;7.80;1.00
19868;DHT22;10096;51.112;6.776;2022-09-30T00:30:41;7.50;1.00
19868;DHT22;10096;51.112;6.776;2022-09-30T00:33:10;7.50;1.00
19868;DHT22;10096;51.112;6.776;2022-09-30T00:35:37;7.60;1.00
19868;DHT22;10096;51.112;6.776;2022-09-30T00:38:04;7.80;1.00
19868;DHT22;10096;51.112;6.776;2022-09-30T00:40:32;7.60;99.90
19868;DHT22;10096;51.112;6.776;2022-09-30T00:42:58;7.60;99.90
19868;DHT22;10096;51.112;6.776;2022-09-30T00:45:26;7.50;99.90
19868;DHT22;10096;51.112;6.776;2022-09-30T00:47:57;7.50;99.90
19868;DHT22;10096;51.112;6.776;2022-09-30T00:50:36;7.50;99.90
19868;DHT22;10096;51.112;6.776;2022-09-30T00:53:10;7.50;1.00
19868;DHT22;10096;51.112;6.776;2022-09-30T00:55:50;7.60;1.00
19868;DHT22;10096;51.112;6.776;2022-09-30T00:58:23;7.30;1.00
19868;DHT22;10096;51.112;6.776;2022-09-30T01:00:53;7.10;1.00
19868;DHT22;10096;51.112;6.776;2022-09-30T01:03:21;7.10;1.00
19868;DHT22;10096;51.112;6.776;2022-09-30T01:05:51;7.10;1.00
19868;DHT22;10096;51.112;6.776;2022-09-30T01:08:20;7.10;1.00
19868;DHT22;10096;51.112;6.776;2022-09-30T01:10:48;7.10;1.00
19868;DHT22;10096;51.112;6.776;2022-09-30T01:13:16;7.10;1.00
19868;DHT22;10096;51.112;6.776;2022-09-30T01:15:56;7.20;1.00
19868;DHT22;10096;51.112;6.776;2022-09-30T01:18:38;7.20;1.00
19868;DHT22;10096;51.112;6.776;2022-09-30T01:21:39;7.10;1.00
19868;DHT22;10096;51.112;6.776;2022-09-30T01:24:38;7.30;99.90
19868;DHT22;10096;51.112;6.776;2022-09-30T01:27:29;7.30;99.90
19868;DHT22;10096;51.112;6.776;2022-09-30T01:30:05;7.20;99.90
19868;DHT22;10096;51.112;6.776;2022-09-30T01:32:43;7.30;99.90
19868;DHT22;10096;51.112;6.776;2022-09-30T01:35:23;7.30;82.60
19868;DHT22;10096;51.112;6.776;2022-09-30T01:38:00;7.30;91.50
19868;DHT22;10096;51.112;6.776;2022-09-30T01:40:35;7.30;12.10
19868;DHT22;10096;51.112;6.776;2022-09-30T01:43:07;7.30;1.00
19868;DHT22;10096;51.112;6.776;2022-09-30T01:45:40;7.30;1.00
19868;DHT22;10096;51.112;6.776;2022-09-30T01:48:17;7.30;1.00
19868;DHT22;10096;51.112;6.776;2022-09-30T01:50:49;7.20;1.00
19868;DHT22;10096;51.112;6.776;2022-09-30T01:53:22;7.20;1.00
19868;DHT22;10096;51.112;6.776;2022-09-30T01:55:54;7.20;1.00
19868;DHT22;10096;51.112;6.776;2022-09-30T01:58:31;7.20;1.00
19868;DHT22;10096;51.112;6.776;2022-09-30T02:01:05;7.00;99.90
19868;DHT22;10096;51.112;6.776;2022-09-30T02:03:38;7.00;1.00
19868;DHT22;10096;51.112;6.776;2022-09-30T02:06:11;7.10;1.00
19868;DHT22;10096;51.112;6.776;2022-09-30T02:08:44;6.70;99.90
19868;DHT22;10096;51.112;6.776;2022-09-30T02:11:16;6.60;1.00
19868;DHT22;10096;51.112;6.776;2022-09-30T02:13:48;6.60;99.90
19868;DHT22;10096;51.112;6.776;2022-09-30T02:16:24;6.50;1.00
19868;DHT22;10096;51.112;6.776;2022-09-30T02:18:58;6.50;1.00
19868;DHT22;10096;51.112;6.776;2022-09-30T02:21:31;6.40;1.00
19868;DHT22;10096;51.112;6.776;2022-09-30T02:24:03;6.50;1.00
19868;DHT22;10096;51.112;6.776;2022-09-30T02:26:35;6.50;1.00
19868;DHT22;10096;51.112;6.776;2022-09-30T02:29:08;6.70;1.00
19868;DHT22;10096;51.112;6.776;2022-09-30T02:31:39;6.60;1.00
19868;DHT22;10096;51.112;6.776;2022-09-30T02:34:11;6.70;99.90
19868;DHT22;10096;51.112;6.776;2022-09-30T02:36:42;6.70;99.90
19868;DHT22;10096;51.112;6.776;2022-09-30T02:39:14;6.80;99.90
19868;DHT22;10096;51.112;6.776;2022-09-30T02:41:48;6.80;1.00
19868;DHT22;10096;51.112;6.776;2022-09-30T02:44:17;6.80;1.00
19868;DHT22;10096;51.112;6.776;2022-09-30T02:46:52;7.00;1.00
19868;DHT22;10096;51.112;6.776;2022-09-30T02:49:27;7.00;99.90
19868;DHT22;10096;51.112;6.776;2022-09-30T02:52:06;7.10;99.90
19868;DHT22;10096;51.112;6.776;2022-09-30T02:54:44;6.90;1.00
19868;DHT22;10096;51.112;6.776;2022-09-30T02:57:16;7.00;1.00
19868;DHT22;10096;51.112;6.776;2022-09-30T02:59:46;7.00;1.00
19868;DHT22;10096;51.112;6.776;2022-09-30T03:02:13;7.00;1.00
19868;DHT22;10096;51.112;6.776;2022-09-30T03:04:42;7.10;1.00
19868;DHT22;10096;51.112;6.776;2022-09-30T03:07:10;7.00;1.00
19868;DHT22;10096;51.112;6.776;2022-09-30T03:09:37;6.90;1.00
19868;DHT22;10096;51.112;6.776;2022-09-30T03:12:11;7.20;25.50
19868;DHT22;10096;51.112;6.776;2022-09-30T03:15:10;7.20;81.80
19868;DHT22;10096;51.112;6.776;2022-09-30T03:20:44;6.90;99.90
19868;DHT22;10096;51.112;6.776;2022-09-30T03:23:41;6.90;99.90
19868;DHT22;10096;51.112;6.776;2022-09-30T03:26:21;6.90;99.90
19868;DHT22;10096;51.112;6.776;2022-09-30T03:29:00;7.00;99.90
19868;DHT22;10096;51.112;6.776;2022-09-30T03:31:37;7.00;99.90
19868;DHT22;10096;51.112;6.776;2022-09-30T03:34:13;7.00;99.90
19868;DHT22;10096;51.112;6.776;2022-09-30T03:36:50;7.20;99.90
19868;DHT22;10096;51.112;6.776;2022-09-30T03:39:27;7.20;99.90
19868;DHT22;10096;51.112;6.776;2022-09-30T03:41:59;7.00;99.90
19868;DHT22;10096;51.112;6.776;2022-09-30T03:44:41;7.00;66.60
19868;DHT22;10096;51.112;6.776;2022-09-30T03:47:12;6.90;1.10
19868;DHT22;10096;51.112;6.776;2022-09-30T03:49:44;6.90;1.00
19868;DHT22;10096;51.112;6.776;2022-09-30T03:52:14;7.00;15.40
19868;DHT22;10096;51.112;6.776;2022-09-30T03:54:46;7.00;1.00
19868;DHT22;10096;51.112;6.776;2022-09-30T03:57:15;6.90;1.00
19868;DHT22;10096;51.112;6.776;2022-09-30T03:59:42;6.90;1.00
19868;DHT22;10096;51.112;6.776;2022-09-30T04:02:10;6.90;1.00
19868;DHT22;10096;51.112;6.776;2022-09-30T04:04:38;6.90;1.00
19868;DHT22;10096;51.112;6.776;2022-09-30T04:07:06;6.80;1.00
19868;DHT22;10096;51.112;6.776;2022-09-30T04:09:38;6.80;1.00
19868;DHT22;10096;51.112;6.776;2022-09-30T04:12:05;6.70;1.00
19868;DHT22;10096;51.112;6.776;2022-09-30T04:14:33;6.70;1.00
19868;DHT22;10096;51.112;6.776;2022-09-30T04:17:01;6.60;1.00
19868;DHT22;10096;51.112;6.776;2022-09-30T04:19:28;6.60;1.00
19868;DHT22;10096;51.112;6.776;2022-09-30T04:21:55;6.60;1.00
19868;DHT22;10096;51.112;6.776;2022-09-30T04:24:23;6.60;1.00
19868;DHT22;10096;51.112;6.776;2022-09-30T04:26:52;6.60;1.00
19868;DHT22;10096;51.112;6.776;2022-09-30T04:29:19;6.70;29.00
19868;DHT22;10096;51.112;6.776;2022-09-30T04:31:46;6.70;12.40
19868;DHT22;10096;51.112;6.776;2022-09-30T04:34:13;6.60;1.00
19868;DHT22;10096;51.112;6.776;2022-09-30T04:36:40;6.60;51.70
19868;DHT22;10096;51.112;6.776;2022-09-30T04:39:09;6.60;96.10
19868;DHT22;10096;51.112;6.776;2022-09-30T04:41:36;6.70;76.00
19868;DHT22;10096;51.112;6.776;2022-09-30T04:44:05;6.80;99.90
19868;DHT22;10096;51.112;6.776;2022-09-30T04:46:33;6.60;99.90
19868;DHT22;10096;51.112;6.776;2022-09-30T04:49:04;6.60;99.90
19868;DHT22;10096;51.112;6.776;2022-09-30T04:51:31;6.70;99.90
19868;DHT22;10096;51.112;6.776;2022-09-30T04:53:58;6.70;99.90
19868;DHT22;10096;51.112;6.776;2022-09-30T04:56:25;6.70;99.90
19868;DHT22;10096;51.112;6.776;2022-09-30T04:58:52;6.70;99.90
19868;DHT22;10096;51.112;6.776;2022-09-30T05:01:21;6.70;1.00
19868;DHT22;10096;51.112;6.776;2022-09-30T05:03:48;6.80;1.00
19868;DHT22;10096;51.112;6.776;2022-09-30T05:06:15;6.80;1.00
19868;DHT22;10096;51.112;6.776;2022-09-30T05:08:42;6.80;1.00
19868;DHT22;10096;51.112;6.776;2022-09-30T05:11:12;6.80;1.00
19868;DHT22;10096;51.112;6.776;2022-09-30T05:13:40;7.00;1.00
19868;DHT22;10096;51.112;6.776;2022-09-30T05:16:08;7.00;1.00
19868;DHT22;10096;51.112;6.776;2022-09-30T05:18:37;7.10;18.00
19868;DHT22;10096;51.112;6.776;2022-09-30T05:21:06;7.00;1.60
19868;DHT22;10096;51.112;6.776;2022-09-30T05:23:34;7.20;67.80
19868;DHT22;10096;51.112;6.776;2022-09-30T05:26:03;7.00;99.90
19868;DHT22;10096;51.112;6.776;2022-09-30T05:28:31;7.00;99.90
19868;DHT22;10096;51.112;6.776;2022-09-30T05:31:00;7.20;99.90
19868;DHT22;10096;51.112;6.776;2022-09-30T05:33:30;7.30;99.90
19868;DHT22;10096;51.112;6.776;2022-09-30T05:36:00;7.10;99.90
19868;DHT22;10096;51.112;6.776;2022-09-30T05:38:28;7.10;99.90
19868;DHT22;10096;51.112;6.776;2022-09-30T05:40:55;7.20;99.90
19868;DHT22;10096;51.112;6.776;2022-09-30T05:43:22;7.30;99.90
19868;DHT22;10096;51.112;6.776;2022-09-30T05:45:53;7.40;99.90
19868;DHT22;10096;51.112;6.776;2022-09-30T05:48:20;7.60;99.90
19868;DHT22;10096;51.112;6.776;2022-09-30T05:50:47;7.70;46.90
19868;DHT22;10096;51.112;6.776;2022-09-30T05:53:18;7.90;1.00
19868;DHT22;10096;51.112;6.776;2022-09-30T05:55:46;8.10;1.00
19868;DHT22;10096;51.112;6.776;2022-09-30T05:58:15;8.00;1.00
19868;DHT22;10096;51.112;6.776;2022-09-30T06:00:45;8.10;1.00
19868;DHT22;10096;51.112;6.776;2022-09-30T06:03:14;8.10;99.90
19868;DHT22;10096;51.112;6.776;2022-09-30T06:05:41;8.10;99.90
19868;DHT22;10096;51.112;6.776;2022-09-30T06:08:10;8.20;99.90
19868;DHT22;10096;51.112;6.776;2022-09-30T06:10:41;8.50;99.90
19868;DHT22;10096;51.112;6.776;2022-09-30T06:13:09;8.50;1.00
19868;DHT22;10096;51.112;6.776;2022-09-30T06:15:36;8.50;1.00
19868;DHT22;10096;51.112;6.776;2022-09-30T06:18:06;8.50;1.00
19868;DHT22;10096;51.112;6.776;2022-09-30T06:20:33;8.50;1.00
19868;DHT22;10096;51.112;6.776;2022-09-30T06:23:00;8.50;1.00
19868;DHT22;10096;51.112;6.776;2022-09-30T06:25:27;8.50;1.00
19868;DHT22;10096;51.112;6.776;2022-09-30T06:27:57;8.70;1.00
19868;DHT22;10096;51.112;6.776;2022-09-30T06:30:24;8.60;1.00
19868;DHT22;10096;51.112;6.776;2022-09-30T06:32:55;8.90;99.90
19868;DHT22;10096;51.112;6.776;2022-09-30T06:35:22;9.50;99.90
19868;DHT22;10096;51.112;6.776;2022-09-30T06:37:51;9.60;99.90
19868;DHT22;10096;51.112;6.776;2022-09-30T06:40:18;10.30;90.50
19868;DHT22;10096;51.112;6.776;2022-09-30T06:42:45;11.20;99.90
19868;DHT22;10096;51.112;6.776;2022-09-30T06:45:15;11.50;1.00
19868;DHT22;10096;51.112;6.776;2022-09-30T06:47:43;12.40;1.00
19868;DHT22;10096;51.112;6.776;2022-09-30T06:50:11;12.90;1.00
19868;DHT22;10096;51.112;6.776;2022-09-30T06:52:38;13.10;99.90
19868;DHT22;10096;51.112;6.776;2022-09-30T06:55:06;13.60;99.90
19868;DHT22;10096;51.112;6.776;2022-09-30T06:57:33;13.70;99.90
19868;DHT22;10096;51.112;6.776;2022-09-30T07:00:01;13.70;99.90
19868;DHT22;10096;51.112;6.776;2022-09-30T07:02:29;14.00;99.90
19868;DHT22;10096;51.112;6.776;2022-09-30T07:04:59;14.20;99.90
19868;DHT22;10096;51.112;6.776;2022-09-30T07:07:28;14.60;99.90
19868;DHT22;10096;51.112;6.776;2022-09-30T07:09:59;15.20;99.90
19868;DHT22;10096;51.112;6.776;2022-09-30T07:12:26;15.10;91.90
19868;DHT22;10096;51.112;6.776;2022-09-30T07:14:53;14.90;99.90
19868;DHT22;10096;51.112;6.776;2022-09-30T07:17:21;15.00;83.90
19868;DHT22;10096;51.112;6.776;2022-09-30T07:19:52;15.10;92.80
19868;DHT22;10096;51.112;6.776;2022-09-30T07:22:19;15.60;99.90
19868;DHT22;10096;51.112;6.776;2022-09-30T07:24:54;15.70;3.20
19868;DHT22;10096;51.112;6.776;2022-09-30T07:27:22;15.40;12.50
19868;DHT22;10096;51.112;6.776;2022-09-30T07:29:57;15.40;5.60
19868;DHT22;10096;51.112;6.776;2022-09-30T07:32:27;15.30;69.50
19868;DHT22;10096;51.112;6.776;2022-09-30T07:34:56;15.60;11.20
19868;DHT22;10096;51.112;6.776;2022-09-30T07:37:27;15.60;17.90
19868;DHT22;10096;51.112;6.776;2022-09-30T07:39:59;15.10;7.00
19868;DHT22;10096;51.112;6.776;2022-09-30T07:42:29;15.60;1.00
19868;DHT22;10096;51.112;6.776;2022-09-30T07:44:56;15.60;8.00
19868;DHT22;10096;51.112;6.776;2022-09-30T07:47:24;15.90;1.00
19868;DHT22;10096;51.112;6.776;2022-09-30T07:49:55;15.90;1.00
19868;DHT22;10096;51.112;6.776;2022-09-30T07:52:22;16.00;1.00
19868;DHT22;10096;51.112;6.776;2022-09-30T07:54:50;15.70;1.00
19868;DHT22;10096;51.112;6.776;2022-09-30T07:57:17;15.90;1.00
19868;DHT22;10096;51.112;6.776;2022-09-30T07:59:44;15.90;17.70
19868;DHT22;10096;51.112;6.776;2022-09-30T08:02:14;15.90;1.00
19868;DHT22;10096;51.112;6.776;2022-09-30T08:04:42;16.20;11.90
19868;DHT22;10096;51.112;6.776;2022-09-30T08:07:11;16.40;1.00
19868;DHT22;10096;51.112;6.776;2022-09-30T08:09:38;16.50;1.00
19868;DHT22;10096;51.112;6.776;2022-09-30T08:12:05;16.20;1.00
19868;DHT22;10096;51.112;6.776;2022-09-30T08:14:32;16.20;1.00
19868;DHT22;10096;51.112;6.776;2022-09-30T08:17:00;15.90;1.00
19868;DHT22;10096;51.112;6.776;2022-09-30T08:19:28;15.50;1.00
19868;DHT22;10096;51.112;6.776;2022-09-30T08:21:58;14.60;39.10
19868;DHT22;10096;51.112;6.776;2022-09-30T08:24:27;14.50;99.90
19868;DHT22;10096;51.112;6.776;2022-09-30T08:26:55;14.10;99.90
19868;DHT22;10096;51.112;6.776;2022-09-30T08:29:22;13.70;99.90
19868;DHT22;10096;51.112;6.776;2022-09-30T08:31:49;13.50;99.90
19868;DHT22;10096;51.112;6.776;2022-09-30T08:34:17;13.50;99.90
19868;DHT22;10096;51.112;6.776;2022-09-30T08:36:44;13.60;99.90
19868;DHT22;10096;51.112;6.776;2022-09-30T08:39:11;13.60;99.90
19868;DHT22;10096;51.112;6.776;2022-09-30T08:42:08;13.50;99.90
19868;DHT22;10096;51.112;6.776;2022-09-30T08:44:42;13.50;99.90
19868;DHT22;10096;51.112;6.776;2022-09-30T08:47:32;13.20;99.90
19868;DHT22;10096;51.112;6.776;2022-09-30T08:50:09;13.20;99.90
19868;DHT22;10096;51.112;6.776;2022-09-30T08:52:44;13.30;99.90
19868;DHT22;10096;51.112;6.776;2022-09-30T08:55:23;13.30;99.90
19868;DHT22;10096;51.112;6.776;2022-09-30T08:57:55;13.30;99.90
19868;DHT22;10096;51.112;6.776;2022-09-30T09:00:22;13.30;99.90
19868;DHT22;10096;51.112;6.776;2022-09-30T09:02:55;13.30;99.90
19868;DHT22;10096;51.112;6.776;2022-09-30T09:05:29;13.40;99.90
19868;DHT22;10096;51.112;6.776;2022-09-30T09:08:09;13.80;99.90
19868;DHT22;10096;51.112;6.776;2022-09-30T09:10:43;13.80;99.90
19868;DHT22;10096;51.112;6.776;2022-09-30T09:13:19;14.00;99.90
19868;DHT22;10096;51.112;6.776;2022-09-30T09:15:58;14.10;99.90
19868;DHT22;10096;51.112;6.776;2022-09-30T09:18:48;14.30;99.90
19868;DHT22;10096;51.112;6.776;2022-09-30T09:21:25;14.50;99.90
19868;DHT22;10096;51.112;6.776;2022-09-30T09:23:59;14.60;99.90
19868;DHT22;10096;51.112;6.776;2022-09-30T09:26:31;14.70;99.90
19868;DHT22;10096;51.112;6.776;2022-09-30T09:29:14;14.90;99.90
19868;DHT22;10096;51.112;6.776;2022-09-30T09:31:44;15.10;99.90
19868;DHT22;10096;51.112;6.776;2022-09-30T09:34:14;15.10;99.90
19868;DHT22;10096;51.112;6.776;2022-09-30T09:36:51;14.80;99.90
19868;DHT22;10096;51.112;6.776;2022-09-30T09:42:23;14.60;99.90
19868;DHT22;10096;51.112;6.776;2022-09-30T09:45:01;14.70;99.90
19868;DHT22;10096;51.112;6.776;2022-09-30T09:47:28;14.40;99.90
19868;DHT22;10096;51.112;6.776;2022-09-30T09:49:57;14.40;99.90
19868;DHT22;10096;51.112;6.776;2022-09-30T09:52:39;14.40;99.90
19868;DHT22;10096;51.112;6.776;2022-09-30T09:55:07;14.50;99.90
19868;DHT22;10096;51.112;6.776;2022-09-30T09:57:36;14.50;99.90
19868;DHT22;10096;51.112;6.776;2022-09-30T10:00:08;14.60;99.90
19868;DHT22;10096;51.112;6.776;2022-09-30T10:03:02;14.80;99.90
19868;DHT22;10096;51.112;6.776;2022-09-30T10:05:31;15.00;99.90
19868;DHT22;10096;51.112;6.776;2022-09-30T10:08:12;14.90;99.90
19868;DHT22;10096;51.112;6.776;2022-09-30T10:10:46;14.80;99.90
19868;DHT22;10096;51.112;6.776;2022-09-30T10:13:19;14.90;99.90
19868;DHT22;10096;51.112;6.776;2022-09-30T10:15:49;15.10;99.90
19868;DHT22;10096;51.112;6.776;2022-09-30T10:18:20;15.10;99.90
19868;DHT22;10096;51.112;6.776;2022-09-30T10:20:52;15.10;99.90
19868;DHT22;10096;51.112;6.776;2022-09-30T10:23:24;15.20;99.90
19868;DHT22;10096;51.112;6.776;2022-09-30T10:25:57;15.20;99.90
19868;DHT22;10096;51.112;6.776;2022-09-30T10:28:28;15.50;99.90
19868;DHT22;10096;51.112;6.776;2022-09-30T10:31:03;15.50;99.90
19868;DHT22;10096;51.112;6.776;2022-09-30T10:33:35;15.50;99.90
19868;DHT22;10096;51.112;6.776;2022-09-30T10:36:13;15.70;99.90
19868;DHT22;10096;51.112;6.776;2022-09-30T10:38:55;15.80;99.90
19868;DHT22;10096;51.112;6.776;2022-09-30T10:41:25;16.10;99.90
19868;DHT22;10096;51.112;6.776;2022-09-30T10:43:55;16.10;94.10
19868;DHT22;10096;51.112;6.776;2022-09-30T10:46:27;16.10;93.90
19868;DHT22;10096;51.112;6.776;2022-09-30T10:48:56;16.00;91.20
19868;DHT22;10096;51.112;6.776;2022-09-30T10:51:56;16.00;99.90
19868;DHT22;10096;51.112;6.776;2022-09-30T10:58:28;16.10;99.90
19868;DHT22;10096;51.112;6.776;2022-09-30T11:01:35;16.00;99.90
19868;DHT22;10096;51.112;6.776;2022-09-30T11:04:14;15.90;91.20
19868;DHT22;10096;51.112;6.776;2022-09-30T11:06:46;16.20;96.70
19868;DHT22;10096;51.112;6.776;2022-09-30T11:10:02;16.40;99.90
19868;DHT22;10096;51.112;6.776;2022-09-30T11:12:40;16.40;26.10
19868;DHT22;10096;51.112;6.776;2022-09-30T11:15:14;16.80;44.30
19868;DHT22;10096;51.112;6.776;2022-09-30T11:17:49;16.80;60.10
19868;DHT22;10096;51.112;6.776;2022-09-30T11:20:21;16.80;9.10
19868;DHT22;10096;51.112;6.776;2022-09-30T11:22:58;17.00;1.00
19868;DHT22;10096;51.112;6.776;2022-09-30T11:25:34;16.90;1.00
19868;DHT22;10096;51.112;6.776;2022-09-30T11:28:24;17.10;1.00
19868;DHT22;10096;51.112;6.776;2022-09-30T11:31:01;17.20;1.00
19868;DHT22;10096;51.112;6.776;2022-09-30T11:33:54;17.60;1.00
19868;DHT22;10096;51.112;6.776;2022-09-30T11:36:29;17.50;1.00
19868;DHT22;10096;51.112;6.776;2022-09-30T11:39:23;17.80;1.00
19868;DHT22;10096;51.112;6.776;2022-09-30T11:42:03;18.00;1.00
19868;DHT22;10096;51.112;6.776;2022-09-30T11:44:35;17.80;1.00
19868;DHT22;10096;51.112;6.776;2022-09-30T11:50:32;17.50;1.00
19868;DHT22;10096;51.112;6.776;2022-09-30T11:53:13;17.80;1.00
19868;DHT22;10096;51.112;6.776;2022-09-30T11:55:56;17.80;1.00
19868;DHT22;10096;51.112;6.776;2022-09-30T11:58:32;17.90;1.00
19868;DHT22;10096;51.112;6.776;2022-09-30T12:01:15;17.80;1.00
19868;DHT22;10096;51.112;6.776;2022-09-30T12:03:54;17.80;1.00
19868;DHT22;10096;51.112;6.776;2022-09-30T12:06:29;17.70;1.00
19868;DHT22;10096;51.112;6.776;2022-09-30T12:09:05;17.70;1.00
19868;DHT22;10096;51.112;6.776;2022-09-30T12:11:38;17.60;1.00
19868;DHT22;10096;51.112;6.776;2022-09-30T12:14:19;17.30;1.00
19868;DHT22;10096;51.112;6.776;2022-09-30T12:16:49;17.70;1.00
19868;DHT22;10096;51.112;6.776;2022-09-30T12:19:27;17.90;1.00
19868;DHT22;10096;51.112;6.776;2022-09-30T12:21:59;17.90;1.00
19868;DHT22;10096;51.112;6.776;2022-09-30T12:24:32;17.80;1.00
19868;DHT22;10096;51.112;6.776;2022-09-30T12:27:02;17.80;1.00
19868;DHT22;10096;51.112;6.776;2022-09-30T12:29:35;17.90;1.00
19868;DHT22;10096;51.112;6.776;2022-09-30T12:35:52;17.60;1.00
19868;DHT22;10096;51.112;6.776;2022-09-30T12:38:38;17.50;1.00
19868;DHT22;10096;51.112;6.776;2022-09-30T12:41:22;17.50;1.00
19868;DHT22;10096;51.112;6.776;2022-09-30T12:44:17;17.80;1.00
19868;DHT22;10096;51.112;6.776;2022-09-30T12:47:07;17.70;1.00
19868;DHT22;10096;51.112;6.776;2022-09-30T12:49:39;17.60;1.00
19868;DHT22;10096;51.112;6.776;2022-09-30T12:52:12;17.70;1.00
19868;DHT22;10096;51.112;6.776;2022-09-30T12:54:41;17.70;1.00
19868;DHT22;10096;51.112;6.776;2022-09-30T12:57:28;17.80;1.00
19868;DHT22;10096;51.112;6.776;2022-09-30T13:00:05;17.80;1.00
19868;DHT22;10096;51.112;6.776;2022-09-30T13:02:46;17.80;1.00
19868;DHT22;10096;51.112;6.776;2022-09-30T13:05:51;17.90;1.00
19868;DHT22;10096;51.112;6.776;2022-09-30T13:08:42;18.20;1.00
19868;DHT22;10096;51.112;6.776;2022-09-30T13:11:38;18.40;1.00
19868;DHT22;10096;51.112;6.776;2022-09-30T13:14:29;18.30;1.00
19868;DHT22;10096;51.112;6.776;2022-09-30T13:23:35;18.10;1.00
19868;DHT22;10096;51.112;6.776;2022-09-30T13:26:04;18.20;1.00
19868;DHT22;10096;51.112;6.776;2022-09-30T13:28:39;18.20;1.00
19868;DHT22;10096;51.112;6.776;2022-09-30T13:31:14;18.40;1.00
19868;DHT22;10096;51.112;6.776;2022-09-30T13:33:45;18.40;1.00
19868;DHT22;10096;51.112;6.776;2022-09-30T13:36:25;18.10;1.00
19868;DHT22;10096;51.112;6.776;2022-09-30T13:39:21;17.90;1.00
19868;DHT22;10096;51.112;6.776;2022-09-30T13:42:00;17.70;1.00
19868;DHT22;10096;51.112;6.776;2022-09-30T13:44:41;17.70;1.00
19868;DHT22;10096;51.112;6.776;2022-09-30T13:47:28;17.80;1.00
19868;DHT22;10096;51.112;6.776;2022-09-30T13:50:29;18.00;1.00
19868;DHT22;10096;51.112;6.776;2022-09-30T13:53:13;18.30;1.00
19868;DHT22;10096;51.112;6.776;2022-09-30T13:55:43;18.50;1.00
19868;DHT22;10096;51.112;6.776;2022-09-30T13:58:34;18.30;1.00
19868;DHT22;10096;51.112;6.776;2022-09-30T14:01:12;18.50;1.00
19868;DHT22;10096;51.112;6.776;2022-09-30T14:04:03;18.40;1.00
19868;DHT22;10096;51.112;6.776;2022-09-30T14:06:45;18.40;1.00
19868;DHT22;10096;51.112;6.776;2022-09-30T14:09:28;18.60;1.00
19868;DHT22;10096;51.112;6.776;2022-09-30T14:12:17;18.80;1.00
19868;DHT22;10096;51.112;6.776;2022-09-30T14:15:18;18.80;1.00
19868;DHT22;10096;51.112;6.776;2022-09-30T14:18:10;18.70;1.00
19868;DHT22;10096;51.112;6.776;2022-09-30T14:21:00;18.70;1.00
19868;DHT22;10096;51.112;6.776;2022-09-30T14:23:37;18.70;1.00
19868;DHT22;10096;51.112;6.776;2022-09-30T14:26:16;18.70;1.00
19868;DHT22;10096;51.112;6.776;2022-09-30T14:28:53;18.60;1.00
19868;DHT22;10096;51.112;6.776;2022-09-30T14:31:24;18.40;1.00
19868;DHT22;10096;51.112;6.776;2022-09-30T14:33:51;18.30;1.00
19868;DHT22;10096;51.112;6.776;2022-09-30T14:36:30;18.20;1.00
19868;DHT22;10096;51.112;6.776;2022-09-30T14:39:05;18.30;1.00
19868;DHT22;10096;51.112;6.776;2022-09-30T14:41:40;18.20;1.00
19868;DHT22;10096;51.112;6.776;2022-09-30T14:44:15;18.20;1.00
19868;DHT22;10096;51.112;6.776;2022-09-30T14:46:46;18.10;1.00
19868;DHT22;10096;51.112;6.776;2022-09-30T14:49:16;18.20;1.00
19868;DHT22;10096;51.112;6.776;2022-09-30T14:51:50;18.30;1.00
19868;DHT22;10096;51.112;6.776;2022-09-30T14:54:32;18.20;1.00
19868;DHT22;10096;51.112;6.776;2022-09-30T14:57:01;18.20;1.00
19868;DHT22;10096;51.112;6.776;2022-09-30T14:59:30;18.20;1.00
19868;DHT22;10096;51.112;6.776;2022-09-30T15:02:01;18.10;1.00
19868;DHT22;10096;51.112;6.776;2022-09-30T15:04:32;18.00;1.00
19868;DHT22;10096;51.112;6.776;2022-09-30T15:07:02;18.00;1.00
19868;DHT22;10096;51.112;6.776;2022-09-30T15:09:33;18.10;1.00
19868;DHT22;10096;51.112;6.776;2022-09-30T15:12:04;18.20;1.00
19868;DHT22;10096;51.112;6.776;2022-09-30T15:14:45;18.40;1.00
19868;DHT22;10096;51.112;6.776;2022-09-30T15:17:17;18.50;1.00
19868;DHT22;10096;51.112;6.776;2022-09-30T15:19:45;18.30;1.00
19868;DHT22;10096;51.112;6.776;2022-09-30T15:22:13;18.20;1.00
19868;DHT22;10096;51.112;6.776;2022-09-30T15:24:40;18.10;1.00
19868;DHT22;10096;51.112;6.776;2022-09-30T15:27:16;18.10;1.00
19868;DHT22;10096;51.112;6.776;2022-09-30T15:29:53;18.10;1.00
19868;DHT22;10096;51.112;6.776;2022-09-30T15:32:25;18.10;1.00
19868;DHT22;10096;51.112;6.776;2022-09-30T15:35:03;18.00;1.00
19868;DHT22;10096;51.112;6.776;2022-09-30T15:37:39;17.90;1.00
19868;DHT22;10096;51.112;6.776;2022-09-30T15:40:13;17.90;1.00
19868;DHT22;10096;51.112;6.776;2022-09-30T15:43:04;17.90;1.00
19868;DHT22;10096;51.112;6.776;2022-09-30T15:45:35;17.80;1.00
19868;DHT22;10096;51.112;6.776;2022-09-30T15:48:05;17.90;1.00
19868;DHT22;10096;51.112;6.776;2022-09-30T15:50:38;17.60;1.00
19868;DHT22;10096;51.112;6.776;2022-09-30T15:53:14;17.60;1.00
19868;DHT22;10096;51.112;6.776;2022-09-30T15:55:46;17.50;1.00
19868;DHT22;10096;51.112;6.776;2022-09-30T15:58:36;17.60;1.00
19868;DHT22;10096;51.112;6.776;2022-09-30T16:01:33;17.50;1.00
19868;DHT22;10096;51.112;6.776;2022-09-30T16:04:07;17.30;1.00
19868;DHT22;10096;51.112;6.776;2022-09-30T16:06:48;17.40;1.00
19868;DHT22;10096;51.112;6.776;2022-09-30T16:09:24;17.30;1.00
19868;DHT22;10096;51.112;6.776;2022-09-30T16:12:01;17.40;1.00
19868;DHT22;10096;51.112;6.776;2022-09-30T16:14:34;17.30;1.00
19868;DHT22;10096;51.112;6.776;2022-09-30T16:17:12;17.30;1.00
19868;DHT22;10096;51.112;6.776;2022-09-30T16:19:52;17.30;1.00
19868;DHT22;10096;51.112;6.776;2022-09-30T16:22:47;17.20;1.00
19868;DHT22;10096;51.112;6.776;2022-09-30T16:25:30;17.20;1.00
19868;DHT22;10096;51.112;6.776;2022-09-30T16:28:01;17.30;1.00
19868;DHT22;10096;51.112;6.776;2022-09-30T16:30:51;17.20;1.00
19868;DHT22;10096;51.112;6.776;2022-09-30T16:33:22;17.20;1.00
19868;DHT22;10096;51.112;6.776;2022-09-30T16:36:00;17.10;1.00
19868;DHT22;10096;51.112;6.776;2022-09-30T16:38:27;17.00;1.00
19868;DHT22;10096;51.112;6.776;2022-09-30T16:40:54;17.00;1.00
19868;DHT22;10096;51.112;6.776;2022-09-30T16:43:23;17.00;1.00
19868;DHT22;10096;51.112;6.776;2022-09-30T16:45:53;17.00;1.00
19868;DHT22;10096;51.112;6.776;2022-09-30T16:48:20;17.00;1.00
19868;DHT22;10096;51.112;6.776;2022-09-30T16:50:53;17.00;1.00